createdAt,value
2018-11-10T00:00:39.696Z,8.74
2018-11-10T00:03:09.305Z,8.80
2018-11-10T00:05:38.904Z,8.81
2018-11-10T00:08:08.670Z,8.81
2018-11-10T00:10:38.264Z,8.81
2018-11-10T00:13:07.917Z,8.86
2018-11-10T00:15:37.596Z,8.82
2018-11-10T00:18:07.515Z,8.84
2018-11-10T00:20:37.099Z,8.80
2018-11-10T00:23:06.856Z,8.70
2018-11-10T00:25:36.407Z,8.74
2018-11-10T00:28:06.016Z,8.65
2018-11-10T00:30:35.625Z,8.59
2018-11-10T00:33:05.285Z,8.56
2018-11-10T00:35:35.199Z,8.53
2018-11-10T00:38:05.216Z,8.49
2018-11-10T00:40:34.856Z,8.47
2018-11-10T00:43:04.540Z,8.44
2018-11-10T00:45:34.134Z,8.36
2018-11-10T00:48:04.009Z,8.38
2018-11-10T00:50:33.578Z,8.45
2018-11-10T00:53:03.129Z,8.36
2018-11-10T00:55:32.815Z,8.23
2018-11-10T00:58:02.476Z,8.14
2018-11-10T01:00:32.064Z,8.07
2018-11-10T01:03:01.666Z,8.15
2018-11-10T01:05:31.302Z,8.17
2018-11-10T01:08:00.917Z,8.25
2018-11-10T01:10:30.502Z,8.30
2018-11-10T01:13:00.075Z,8.32
2018-11-10T01:15:29.704Z,8.24
2018-11-10T01:17:59.282Z,8.16
2018-11-10T01:20:28.904Z,8.10
2018-11-10T01:22:58.541Z,8.03
2018-11-10T01:25:28.149Z,8.11
2018-11-10T01:27:57.960Z,8.12
2018-11-10T01:30:27.477Z,8.19
2018-11-10T01:32:57.106Z,8.27
2018-11-10T01:35:26.878Z,8.32
2018-11-10T01:37:56.494Z,8.33
2018-11-10T01:40:26.087Z,8.33
2018-11-10T01:42:55.757Z,8.32
2018-11-10T01:45:25.365Z,8.30
2018-11-10T01:47:55.007Z,8.25
2018-11-10T01:50:24.616Z,8.27
2018-11-10T01:52:54.251Z,8.24
2018-11-10T01:55:23.796Z,8.09
2018-11-10T01:57:53.423Z,8.08
2018-11-10T02:00:22.960Z,8.06
2018-11-10T02:02:52.614Z,8.05
2018-11-10T02:05:22.239Z,8.02
2018-11-10T02:07:51.853Z,8.03
2018-11-10T02:10:21.428Z,8.10
2018-11-10T02:12:51.018Z,8.05
2018-11-10T02:15:20.720Z,8.07
2018-11-10T02:17:50.317Z,8.12
2018-11-10T02:20:19.909Z,8.18
2018-11-10T02:22:49.594Z,8.25
2018-11-10T02:25:19.247Z,8.26
2018-11-10T02:27:48.894Z,8.31
2018-11-10T02:30:18.476Z,8.32
2018-11-10T02:32:48.076Z,8.30
2018-11-10T02:35:17.654Z,8.29
2018-11-10T02:37:47.257Z,8.41
2018-11-10T02:40:16.986Z,8.35
2018-11-10T02:42:46.596Z,8.34
2018-11-10T02:45:16.366Z,8.31
2018-11-10T02:47:46.336Z,8.43
2018-11-10T02:50:16.047Z,8.43
2018-11-10T02:52:45.731Z,8.43
2018-11-10T02:55:15.186Z,8.38
2018-11-10T02:57:44.817Z,8.38
2018-11-10T03:00:15.174Z,8.38
2018-11-10T03:02:44.819Z,8.31
2018-11-10T03:05:14.390Z,8.31
2018-11-10T03:07:44.025Z,8.27
2018-11-10T03:10:13.647Z,8.22
2018-11-10T03:12:43.306Z,8.21
2018-11-10T03:15:13.455Z,8.23
2018-11-10T03:17:43.029Z,8.11
2018-11-10T03:20:15.487Z,8.10
2018-11-10T03:22:45.635Z,8.06
2018-11-10T03:25:15.256Z,7.98
2018-11-10T03:27:44.926Z,7.90
2018-11-10T03:30:14.574Z,7.86
2018-11-10T03:32:44.525Z,7.89
2018-11-10T03:35:14.136Z,7.81
2018-11-10T03:37:43.805Z,7.76
2018-11-10T03:40:13.620Z,7.72
2018-11-10T03:42:43.194Z,7.61
2018-11-10T03:45:13.552Z,7.67
2018-11-10T03:47:43.146Z,7.61
2018-11-10T03:50:12.905Z,7.72
2018-11-10T03:52:42.989Z,7.73
2018-11-10T03:55:12.580Z,7.75
2018-11-10T03:57:42.095Z,7.73
2018-11-10T04:00:13.424Z,7.75
2018-11-10T04:02:44.549Z,7.75
2018-11-10T04:05:14.796Z,7.71
2018-11-10T04:07:45.420Z,7.63
2018-11-10T04:10:15.671Z,7.50
2018-11-10T04:12:46.347Z,7.43
2018-11-10T04:15:15.986Z,7.28
2018-11-10T04:17:45.586Z,7.13
2018-11-10T04:20:15.157Z,6.98
2018-11-10T04:22:44.732Z,6.82
2018-11-10T04:25:14.321Z,6.99
2018-11-10T04:27:43.965Z,7.16
2018-11-10T04:30:13.537Z,7.23
2018-11-10T04:32:43.108Z,7.27
2018-11-10T04:35:13.810Z,7.30
2018-11-10T04:37:43.426Z,7.30
2018-11-10T04:40:12.999Z,7.26
2018-11-10T04:42:42.618Z,7.27
2018-11-10T04:45:13.412Z,7.28
2018-11-10T04:47:43.076Z,7.36
2018-11-10T04:50:13.221Z,7.41
2018-11-10T04:52:43.165Z,7.38
2018-11-10T04:55:13.506Z,7.42
2018-11-10T04:57:43.135Z,7.44
2018-11-10T05:00:14.820Z,7.47
2018-11-10T05:02:45.373Z,7.55
2018-11-10T05:05:15.078Z,7.54
2018-11-10T05:07:44.667Z,7.52
2018-11-10T05:10:14.286Z,7.53
2018-11-10T05:12:43.867Z,7.48
2018-11-10T05:15:14.201Z,7.48
2018-11-10T05:17:43.835Z,7.42
2018-11-10T05:20:13.523Z,7.36
2018-11-10T05:22:43.222Z,7.32
2018-11-10T05:25:12.843Z,7.24
2018-11-10T05:27:42.397Z,7.27
2018-11-10T05:30:12.562Z,7.22
2018-11-10T05:32:42.130Z,7.19
2018-11-10T05:35:11.760Z,7.17
2018-11-10T05:37:41.373Z,7.14
2018-11-10T05:40:11.793Z,7.10
2018-11-10T05:42:41.888Z,7.05
2018-11-10T05:45:11.623Z,7.02
2018-11-10T05:47:41.199Z,7.04
2018-11-10T05:50:10.955Z,7.00
2018-11-10T05:52:40.587Z,7.00
2018-11-10T05:55:10.351Z,6.95
2018-11-10T05:57:40.941Z,6.97
2018-11-10T06:00:14.263Z,6.92
2018-11-10T06:02:43.980Z,6.89
2018-11-10T06:05:13.899Z,6.86
2018-11-10T06:07:43.505Z,6.84
2018-11-10T06:10:13.510Z,6.80
2018-11-10T06:12:43.594Z,6.75
2018-11-10T06:15:13.225Z,6.72
2018-11-10T06:17:42.886Z,6.65
2018-11-10T06:20:13.590Z,6.64
2018-11-10T06:22:43.195Z,6.63
2018-11-10T06:25:12.804Z,6.64
2018-11-10T06:27:42.327Z,6.69
2018-11-10T06:30:12.935Z,6.77
2018-11-10T06:32:42.634Z,6.81
2018-11-10T06:35:12.329Z,6.83
2018-11-10T06:37:42.844Z,6.85
2018-11-10T06:40:13.801Z,6.83
2018-11-10T06:42:44.031Z,6.85
2018-11-10T06:45:13.609Z,6.90
2018-11-10T06:47:43.269Z,6.98
2018-11-10T06:50:13.504Z,7.10
2018-11-10T06:52:43.117Z,7.24
2018-11-10T06:55:12.770Z,7.40
2018-11-10T06:57:42.478Z,7.65
2018-11-10T07:00:14.584Z,7.80
2018-11-10T07:02:44.905Z,8.08
2018-11-10T07:05:14.496Z,8.29
2018-11-10T07:07:44.055Z,8.54
2018-11-10T07:10:13.680Z,8.78
2018-11-10T07:12:43.285Z,8.76
2018-11-10T07:15:12.896Z,8.72
2018-11-10T07:17:42.543Z,8.95
2018-11-10T07:20:12.102Z,9.09
2018-11-10T07:22:41.685Z,9.38
2018-11-10T07:25:11.321Z,9.71
2018-11-10T07:27:40.929Z,9.62
2018-11-10T07:30:12.976Z,9.90
2018-11-10T07:32:43.266Z,9.88
2018-11-10T07:35:13.836Z,10.14
2018-11-10T07:37:43.434Z,10.30
2018-11-10T07:40:13.733Z,10.54
2018-11-10T07:42:43.389Z,10.97
2018-11-10T07:45:16.827Z,11.33
2018-11-10T07:47:46.666Z,11.82
2018-11-10T07:50:16.289Z,12.15
2018-11-10T07:52:45.937Z,11.78
2018-11-10T07:55:16.259Z,12.46
2018-11-10T07:57:45.854Z,12.46
2018-11-10T08:00:16.839Z,13.08
2018-11-10T08:02:46.543Z,13.39
2018-11-10T08:05:16.669Z,13.16
2018-11-10T08:07:46.401Z,12.68
2018-11-10T08:10:16.335Z,12.97
2018-11-10T08:12:45.913Z,13.07
2018-11-10T08:15:16.893Z,12.94
2018-11-10T08:17:47.076Z,12.99
2018-11-10T08:20:16.686Z,13.44
2018-11-10T08:22:46.449Z,13.41
2018-11-10T08:25:16.447Z,13.86
2018-11-10T08:27:46.075Z,13.57
2018-11-10T08:30:15.885Z,13.58
2018-11-10T08:32:45.621Z,13.21
2018-11-10T08:35:15.775Z,13.80
2018-11-10T08:37:45.462Z,13.30
2018-11-10T08:40:16.374Z,13.89
2018-11-10T08:42:46.075Z,13.87
2018-11-10T08:45:16.299Z,14.52
2018-11-10T08:47:45.987Z,14.58
2018-11-10T08:50:16.465Z,14.58
2018-11-10T08:52:46.040Z,14.96
2018-11-10T08:55:15.633Z,15.20
2018-11-10T08:57:45.358Z,15.88
2018-11-10T09:00:14.874Z,15.01
2018-11-10T09:02:44.456Z,15.00
2018-11-10T09:05:14.067Z,15.43
2018-11-10T09:07:43.823Z,15.74
2018-11-10T09:10:14.535Z,15.40
2018-11-10T09:12:44.148Z,15.98
2018-11-10T09:15:15.160Z,16.48
2018-11-10T09:17:45.215Z,16.32
2018-11-10T09:20:16.076Z,16.01
2018-11-10T09:22:45.816Z,16.49
2018-11-10T09:25:17.599Z,16.75
2018-11-10T09:27:47.398Z,16.08
2018-11-10T09:30:17.932Z,16.15
2018-11-10T09:32:47.563Z,15.97
2018-11-10T09:35:17.175Z,15.44
2018-11-10T09:37:46.856Z,16.01
2018-11-10T09:40:17.247Z,16.61
2018-11-10T09:42:46.955Z,15.70
2018-11-10T09:45:17.534Z,16.11
2018-11-10T09:47:47.215Z,17.03
2018-11-10T09:50:20.065Z,16.52
2018-11-10T09:52:49.894Z,15.95
2018-11-10T09:55:19.814Z,16.87
2018-11-10T09:57:49.407Z,16.33
2018-11-10T10:00:20.320Z,16.13
2018-11-10T10:02:50.723Z,16.41
2018-11-10T10:05:19.989Z,16.42
2018-11-10T10:07:49.597Z,16.81
2018-11-10T10:10:19.724Z,17.53
2018-11-10T10:12:49.288Z,17.85
2018-11-10T10:15:19.563Z,17.11
2018-11-10T10:17:49.294Z,17.74
2018-11-10T10:20:20.251Z,17.28
2018-11-10T10:22:50.558Z,17.09
2018-11-10T10:25:20.664Z,17.09
2018-11-10T10:27:51.062Z,17.91
2018-11-10T10:30:22.292Z,17.45
2018-11-10T10:32:51.866Z,16.74
2018-11-10T10:35:21.668Z,17.73
2018-11-10T10:37:51.899Z,18.17
2018-11-10T10:40:21.486Z,18.32
2018-11-10T10:42:51.153Z,18.55
2018-11-10T10:45:24.638Z,18.25
2018-11-10T10:47:54.253Z,17.97
2018-11-10T10:50:24.146Z,18.99
2018-11-10T10:52:53.864Z,18.82
2018-11-10T10:55:23.484Z,18.39
2018-11-10T10:57:53.089Z,18.01
2018-11-10T11:00:26.666Z,17.85
2018-11-10T11:02:56.521Z,17.96
2018-11-10T11:05:29.883Z,17.94
2018-11-10T11:07:59.456Z,17.72
2018-11-10T11:10:29.056Z,18.03
2018-11-10T11:12:58.645Z,18.55
2018-11-10T11:15:28.424Z,17.85
2018-11-10T11:17:58.023Z,18.42
2018-11-10T11:20:27.625Z,18.10
2018-11-10T11:22:57.204Z,18.58
2018-11-10T11:25:26.874Z,18.98
2018-11-10T11:27:56.652Z,19.58
2018-11-10T11:30:26.235Z,18.42
2018-11-10T11:32:55.835Z,17.88
2018-11-10T11:35:25.498Z,18.57
2018-11-10T11:37:55.123Z,18.04
2018-11-10T11:40:24.716Z,17.99
2018-11-10T11:42:54.348Z,17.73
2018-11-10T11:45:23.914Z,17.92
2018-11-10T11:47:53.492Z,17.53
2018-11-10T11:50:23.195Z,17.60
2018-11-10T11:52:52.805Z,19.14
2018-11-10T11:55:22.418Z,17.98
2018-11-10T11:57:52.138Z,17.56
2018-11-10T12:00:21.655Z,17.52
2018-11-10T12:02:51.258Z,17.89
2018-11-10T12:05:20.915Z,17.48
2018-11-10T12:07:50.470Z,17.53
2018-11-10T12:10:20.073Z,17.69
2018-11-10T12:12:49.744Z,18.00
2018-11-10T12:15:19.362Z,18.37
2018-11-10T12:17:48.956Z,18.13
2018-11-10T12:20:18.574Z,18.05
2018-11-10T12:22:48.181Z,18.72
2018-11-10T12:25:17.816Z,18.32
2018-11-10T12:27:47.505Z,19.39
2018-11-10T12:30:17.046Z,18.98
2018-11-10T12:32:46.665Z,18.32
2018-11-10T12:35:16.309Z,18.01
2018-11-10T12:37:45.916Z,17.95
2018-11-10T12:40:15.518Z,18.09
2018-11-10T12:42:46.265Z,19.50
2018-11-10T12:45:15.863Z,18.89
2018-11-10T12:47:45.467Z,19.11
2018-11-10T12:50:15.981Z,19.40
2018-11-10T12:52:46.129Z,18.24
2018-11-10T12:55:16.559Z,17.86
2018-11-10T12:57:46.958Z,17.34
2018-11-10T13:00:22.823Z,18.12
2018-11-10T13:02:52.376Z,17.16
2018-11-10T13:05:22.036Z,17.25
2018-11-10T13:07:51.669Z,17.19
2018-11-10T13:10:21.237Z,17.57
2018-11-10T13:12:51.265Z,17.49
2018-11-10T13:15:20.837Z,18.13
2018-11-10T13:17:50.446Z,17.15
2018-11-10T13:20:20.087Z,17.00
2018-11-10T13:22:49.688Z,16.62
2018-11-10T13:25:20.365Z,16.79
2018-11-10T13:27:50.004Z,16.60
2018-11-10T13:30:19.649Z,17.02
2018-11-10T13:32:49.304Z,16.68
2018-11-10T13:35:18.925Z,16.77
2018-11-10T13:37:48.713Z,16.39
2018-11-10T13:40:18.328Z,16.56
2018-11-10T13:42:48.074Z,16.61
2018-11-10T13:45:17.681Z,16.38
2018-11-10T13:47:47.392Z,16.22
2018-11-10T13:50:17.024Z,16.46
2018-11-10T13:52:47.065Z,16.74
2018-11-10T13:55:16.356Z,16.85
2018-11-10T13:57:46.126Z,15.84
2018-11-10T14:00:17.363Z,15.64
2018-11-10T14:02:47.061Z,15.42
2018-11-10T14:05:16.767Z,15.23
2018-11-10T14:07:46.415Z,15.02
2018-11-10T14:10:16.835Z,15.21
2018-11-10T14:12:47.215Z,15.08
2018-11-10T14:15:16.847Z,15.23
2018-11-10T14:17:46.460Z,15.45
2018-11-10T14:20:16.973Z,15.10
2018-11-10T14:22:47.265Z,14.79
2018-11-10T14:25:17.589Z,14.70
2018-11-10T14:27:47.328Z,14.46
2018-11-10T14:30:18.165Z,14.17
2018-11-10T14:32:48.144Z,14.05
2018-11-10T14:35:17.853Z,13.77
2018-11-10T14:37:47.484Z,13.58
2018-11-10T14:40:18.165Z,13.58
2018-11-10T14:42:47.826Z,13.20
2018-11-10T14:45:18.787Z,13.02
2018-11-10T14:47:48.581Z,12.90
2018-11-10T14:50:19.002Z,12.76
2018-11-10T14:52:48.742Z,12.67
2018-11-10T14:55:18.323Z,12.55
2018-11-10T14:57:47.976Z,12.35
2018-11-10T15:00:19.371Z,12.13
2018-11-10T15:02:49.036Z,11.87
2018-11-10T15:05:18.680Z,11.67
2018-11-10T15:07:48.319Z,11.51
2018-11-10T15:10:18.736Z,11.39
2018-11-10T15:12:48.932Z,11.20
2018-11-10T15:15:19.308Z,11.11
2018-11-10T15:17:49.201Z,10.83
2018-11-10T15:20:19.857Z,10.63
2018-11-10T15:22:49.612Z,10.50
2018-11-10T15:25:20.590Z,10.42
2018-11-10T15:27:50.227Z,10.28
2018-11-10T15:30:21.015Z,10.17
2018-11-10T15:32:51.196Z,10.07
2018-11-10T15:35:22.145Z,9.97
2018-11-10T15:37:52.816Z,9.90
2018-11-10T15:40:23.094Z,9.79
2018-11-10T15:42:52.812Z,9.73
2018-11-10T15:45:22.534Z,9.64
2018-11-10T15:47:52.147Z,9.54
2018-11-10T15:50:22.130Z,9.54
2018-11-10T15:52:51.736Z,9.43
2018-11-10T15:55:21.351Z,9.43
2018-11-10T15:57:51.020Z,9.31
2018-11-10T16:00:20.973Z,9.21
2018-11-10T16:02:50.627Z,9.15
2018-11-10T16:05:20.264Z,9.22
2018-11-10T16:07:49.900Z,9.20
2018-11-10T16:10:19.745Z,9.02
2018-11-10T16:12:49.197Z,8.91
2018-11-10T16:15:19.134Z,8.79
2018-11-10T16:17:48.775Z,8.82
2018-11-10T16:20:20.141Z,8.72
2018-11-10T16:22:52.862Z,8.72
2018-11-10T16:25:22.509Z,8.70
2018-11-10T16:27:52.207Z,8.62
2018-11-10T16:30:22.060Z,8.56
2018-11-10T16:32:51.834Z,8.48
2018-11-10T16:35:21.481Z,8.40
2018-11-10T16:37:51.203Z,8.39
2018-11-10T16:40:21.441Z,8.24
2018-11-10T16:42:51.435Z,8.18
2018-11-10T16:45:21.747Z,8.12
2018-11-10T16:47:51.388Z,8.21
2018-11-10T16:50:20.980Z,8.17
2018-11-10T16:52:50.645Z,8.05
2018-11-10T16:55:20.291Z,8.05
2018-11-10T16:57:49.966Z,7.92
2018-11-10T17:00:20.285Z,7.86
2018-11-10T17:02:49.942Z,7.82
2018-11-10T17:05:25.776Z,7.75
2018-11-10T17:07:55.492Z,7.81
2018-11-10T17:10:25.107Z,7.97
2018-11-10T17:12:54.765Z,8.08
2018-11-10T17:15:24.457Z,7.94
2018-11-10T17:17:53.976Z,8.03
2018-11-10T17:20:23.722Z,8.14
2018-11-10T17:22:53.319Z,8.09
2018-11-10T17:25:22.999Z,8.10
2018-11-10T17:27:52.688Z,8.18
2018-11-10T17:30:22.704Z,8.11
2018-11-10T17:32:52.371Z,8.17
2018-11-10T17:35:21.977Z,8.08
2018-11-10T17:37:51.600Z,8.04
2018-11-10T17:40:21.350Z,7.93
2018-11-10T17:42:50.885Z,7.81
2018-11-10T17:45:20.489Z,7.75
2018-11-10T17:47:50.146Z,7.71
2018-11-10T17:50:19.806Z,7.61
2018-11-10T17:52:49.482Z,7.55
2018-11-10T17:55:19.100Z,7.38
2018-11-10T17:57:48.813Z,7.33
2018-11-10T18:00:18.421Z,7.31
2018-11-10T18:02:48.141Z,7.21
2018-11-10T18:05:18.037Z,7.22
2018-11-10T18:07:47.676Z,7.11
2018-11-10T18:10:18.424Z,6.96
2018-11-10T18:12:48.107Z,6.89
2018-11-10T18:15:17.835Z,6.81
2018-11-10T18:17:47.513Z,6.69
2018-11-10T18:20:17.926Z,6.69
2018-11-10T18:22:47.877Z,6.68
2018-11-10T18:25:17.537Z,6.64
2018-11-10T18:27:47.172Z,6.63
2018-11-10T18:30:16.880Z,6.61
2018-11-10T18:32:46.675Z,6.60
2018-11-10T18:35:16.145Z,6.53
2018-11-10T18:37:45.846Z,6.48
2018-11-10T18:40:15.529Z,6.47
2018-11-10T18:42:45.144Z,6.43
2018-11-10T18:45:14.835Z,6.45
2018-11-10T18:47:44.463Z,6.45
2018-11-10T18:50:15.778Z,6.47
2018-11-10T18:52:45.505Z,6.49
2018-11-10T18:55:16.012Z,6.47
2018-11-10T18:57:46.000Z,6.46
2018-11-10T19:00:16.802Z,6.47
2018-11-10T19:02:46.570Z,6.47
2018-11-10T19:05:17.376Z,6.46
2018-11-10T19:07:47.039Z,6.48
2018-11-10T19:10:17.888Z,6.53
2018-11-10T19:12:47.622Z,6.52
2018-11-10T19:15:19.655Z,6.53
2018-11-10T19:17:49.509Z,6.52
2018-11-10T19:20:19.590Z,6.58
2018-11-10T19:22:50.279Z,6.61
2018-11-10T19:25:19.999Z,6.54
2018-11-10T19:27:49.701Z,6.53
2018-11-10T19:30:23.611Z,6.50
2018-11-10T19:32:53.250Z,6.63
2018-11-10T19:35:23.206Z,6.79
2018-11-10T19:37:52.864Z,6.73
2018-11-10T19:40:25.616Z,6.85
2018-11-10T19:42:55.283Z,6.80
2018-11-10T19:45:25.027Z,6.72
2018-11-10T19:47:54.704Z,6.62
2018-11-10T19:50:25.564Z,6.52
2018-11-10T19:52:55.137Z,6.52
2018-11-10T19:55:24.847Z,6.49
2018-11-10T19:57:54.516Z,6.47
2018-11-10T20:00:25.131Z,6.41
2018-11-10T20:02:54.816Z,6.46
2018-11-10T20:05:24.496Z,6.42
2018-11-10T20:07:54.700Z,6.38
2018-11-10T20:10:24.482Z,6.44
2018-11-10T20:12:54.194Z,6.48
2018-11-10T20:15:23.877Z,6.56
2018-11-10T20:17:53.634Z,6.62
2018-11-10T20:20:23.266Z,6.66
2018-11-10T20:22:52.944Z,6.60
2018-11-10T20:25:22.723Z,6.57
2018-11-10T20:27:52.355Z,6.54
2018-11-10T20:30:22.257Z,6.54
2018-11-10T20:32:51.971Z,6.61
2018-11-10T20:35:21.749Z,6.69
2018-11-10T20:37:51.434Z,6.61
2018-11-10T20:40:21.063Z,6.71
2018-11-10T20:42:51.415Z,6.69
2018-11-10T20:45:22.701Z,6.70
2018-11-10T20:47:52.388Z,6.63
2018-11-10T20:50:22.035Z,6.60
2018-11-10T20:52:51.746Z,6.52
2018-11-10T20:55:21.403Z,6.49
2018-11-10T20:57:51.184Z,6.40
2018-11-10T21:00:22.202Z,6.37
2018-11-10T21:02:51.824Z,6.28
2018-11-10T21:05:21.444Z,6.40
2018-11-10T21:07:51.144Z,6.34
2018-11-10T21:10:21.587Z,6.24
2018-11-10T21:12:51.798Z,6.22
2018-11-10T21:15:21.868Z,6.14
2018-11-10T21:17:51.514Z,6.20
2018-11-10T21:20:21.179Z,6.25
2018-11-10T21:22:50.893Z,6.18
2018-11-10T21:25:20.515Z,6.04
2018-11-10T21:27:50.345Z,5.99
2018-11-10T21:30:20.871Z,5.94
2018-11-10T21:32:50.883Z,6.03
2018-11-10T21:35:23.589Z,6.09
2018-11-10T21:37:53.207Z,6.08
2018-11-10T21:40:22.815Z,5.97
2018-11-10T21:42:52.455Z,5.92
2018-11-10T21:45:22.054Z,5.95
2018-11-10T21:47:51.774Z,5.97
2018-11-10T21:50:21.566Z,5.99
2018-11-10T21:52:51.217Z,6.03
2018-11-10T21:55:21.216Z,5.98
2018-11-10T21:57:51.015Z,5.96
2018-11-10T22:00:22.045Z,5.89
2018-11-10T22:02:52.196Z,5.86
2018-11-10T22:05:22.317Z,5.77
2018-11-10T22:07:51.932Z,5.68
2018-11-10T22:10:21.627Z,5.67
2018-11-10T22:12:51.733Z,5.73
2018-11-10T22:15:22.800Z,5.60
2018-11-10T22:17:52.601Z,5.62
2018-11-10T22:20:23.565Z,5.65
2018-11-10T22:22:53.258Z,5.65
2018-11-10T22:25:22.951Z,5.59
2018-11-10T22:27:53.668Z,5.54
2018-11-10T22:30:23.900Z,5.56
2018-11-10T22:32:53.600Z,5.60
2018-11-10T22:35:23.209Z,5.60
2018-11-10T22:37:52.859Z,5.56
2018-11-10T22:40:22.879Z,5.46
2018-11-10T22:42:52.452Z,5.35
2018-11-10T22:45:22.631Z,5.28
2018-11-10T22:47:52.917Z,5.31
2018-11-10T22:50:23.821Z,5.25
2018-11-10T22:52:53.412Z,5.26
2018-11-10T22:55:23.020Z,5.17
2018-11-10T22:57:52.620Z,5.19
2018-11-10T23:00:23.786Z,5.22
2018-11-10T23:02:54.759Z,5.22
2018-11-10T23:05:24.979Z,5.36
2018-11-10T23:07:54.639Z,5.42
2018-11-10T23:10:24.446Z,5.50
2018-11-10T23:12:54.675Z,5.50
2018-11-10T23:15:24.275Z,5.39
2018-11-10T23:17:53.939Z,5.42
2018-11-10T23:20:23.541Z,5.38
2018-11-10T23:22:53.186Z,5.33
2018-11-10T23:25:22.804Z,5.35
2018-11-10T23:27:52.462Z,5.40
2018-11-10T23:30:23.201Z,5.46
2018-11-10T23:32:52.840Z,5.40
2018-11-10T23:35:22.457Z,5.38
2018-11-10T23:37:52.155Z,5.47
2018-11-10T23:40:21.732Z,5.46
2018-11-10T23:42:51.376Z,5.42
2018-11-10T23:45:20.989Z,5.34
2018-11-10T23:47:50.689Z,5.35
2018-11-10T23:50:20.272Z,5.40
2018-11-10T23:52:49.961Z,5.29
2018-11-10T23:55:19.585Z,5.35
2018-11-10T23:57:49.316Z,5.27
